Time;durP1;ratioP1;P1;durP2;ratioP2;P2;SDS_P1;SDS_P2;PMS_P1;PMS_P2;Temp;Humidity;BMP_temperature;BMP_pressure;BME280_temperature;BME280_humidity;BME280_pressure;Samples;Min_cycle;Max_cycle;Signal;HPM_P1;HPM_P2
2022/12/02 00:01:53;;;;;;;32.87;13.07;;;3.10;99.90;;;;;;5033949;28;20252;-59
2022/12/02 00:04:27;;;;;;;35.77;12.60;;;3.10;99.90;;;;;;5033919;28;20198;-60
2022/12/02 00:06:56;;;;;;;56.23;14.13;;;2.30;99.90;;;;;;5033711;28;20177;-63
2022/12/02 00:09:34;;;;;;;45.63;13.40;;;2.80;99.90;;;;;;5033935;28;20220;-59
2022/12/02 00:12:12;;;;;;;33.30;13.77;;;2.90;99.90;;;;;;5033689;28;20680;-60
2022/12/02 00:14:39;;;;;;;34.63;13.97;;;;;;;;;;5034225;28;20295;-60
2022/12/02 00:17:04;;;;;;;31.97;13.47;;;2.90;99.90;;;;;;5033738;28;20177;-60
2022/12/02 00:19:30;;;;;;;28.20;12.60;;;;;;;;;;5033804;28;20710;-59
2022/12/02 00:21:56;;;;;;;30.33;11.80;;;;;;;;;;5032032;28;20257;-60
2022/12/02 00:24:22;;;;;;;30.80;11.37;;;3.00;99.90;;;;;;5032619;28;20663;-59
2022/12/02 00:26:47;;;;;;;40.57;12.07;;;2.90;99.90;;;;;;5033410;28;20173;-59
2022/12/02 00:29:13;;;;;;;66.90;11.90;;;2.50;99.90;;;;;;5051988;28;20200;-60
2022/12/02 00:31:39;;;;;;;66.13;11.90;;;2.80;99.90;;;;;;5041326;28;20663;-60
2022/12/02 00:34:04;;;;;;;59.60;12.40;;;2.50;99.90;;;;;;5049151;28;20189;-60
2022/12/02 00:36:31;;;;;;;50.87;11.17;;;;;;;;;;5050939;28;20206;-59
2022/12/02 00:38:57;;;;;;;67.27;13.57;;;2.20;99.90;;;;;;5051131;28;20204;-60
2022/12/02 00:41:23;;;;;;;33.93;12.77;;;2.70;99.90;;;;;;5053097;28;20169;-59
2022/12/02 00:46:35;;;;;;;33.90;12.83;;;3.30;99.90;;;;;;5040512;28;20197;-59
2022/12/02 00:49:12;;;;;;;49.67;13.50;;;3.00;99.90;;;;;;5046153;28;20186;-59
2022/12/02 00:51:40;;;;;;;38.73;13.37;;;3.10;99.90;;;;;;5039464;28;20186;-60
2022/12/02 00:54:06;;;;;;;33.67;12.70;;;4.80;99.90;;;;;;5037356;28;20678;-60
2022/12/02 00:56:32;;;;;;;33.57;12.63;;;3.20;99.90;;;;;;5044049;28;20173;-59
2022/12/02 00:58:58;;;;;;;38.50;12.20;;;3.50;99.90;;;;;;5052767;28;20181;-60
2022/12/02 01:01:24;;;;;;;31.50;12.10;;;3.30;99.90;;;;;;5034934;28;20200;-58
2022/12/02 01:03:50;;;;;;;27.00;11.33;;;;;;;;;;5032795;28;20173;-58
2022/12/02 01:06:16;;;;;;;43.23;12.07;;;3.20;99.90;;;;;;5032862;28;20224;-58
2022/12/02 01:08:42;;;;;;;28.50;10.87;;;3.20;99.90;;;;;;5032846;28;20640;-59
2022/12/02 01:11:07;;;;;;;43.47;11.83;;;3.10;99.90;;;;;;5032666;28;20265;-59
2022/12/02 01:13:33;;;;;;;35.53;11.27;;;;;;;;;;5050057;28;20304;-59
2022/12/02 01:16:00;;;;;;;57.73;11.10;;;;;;;;;;5052447;28;20656;-58
2022/12/02 01:18:25;;;;;;;37.70;11.03;;;3.20;99.90;;;;;;5051800;28;20180;-59
2022/12/02 01:20:51;;;;;;;38.27;11.10;;;;;;;;;;5052029;28;20169;-59
2022/12/02 01:23:17;;;;;;;30.33;10.63;;;2.80;99.90;;;;;;5050909;28;20184;-58
2022/12/02 01:25:43;;;;;;;25.20;10.17;;;3.20;99.90;;;;;;5052186;28;20184;-59
2022/12/02 01:28:09;;;;;;;23.83;10.00;;;3.10;99.90;;;;;;5051570;28;20670;-59
2022/12/02 01:30:35;;;;;;;35.13;10.60;;;;;;;;;;5050609;28;20161;-59
2022/12/02 01:33:01;;;;;;;38.03;10.80;;;3.30;99.90;;;;;;5051118;28;20223;-59
2022/12/02 01:35:26;;;;;;;29.40;10.40;;;2.90;99.90;;;;;;5051847;28;20165;-59
2022/12/02 01:37:52;;;;;;;22.40;10.23;;;;;;;;;;5051620;28;20252;-59
2022/12/02 01:40:19;;;;;;;31.87;10.23;;;3.30;99.90;;;;;;5051631;28;20169;-59
2022/12/02 01:42:46;;;;;;;20.90;9.67;;;3.30;99.90;;;;;;5052079;28;20188;-59
2022/12/02 01:45:12;;;;;;;20.73;8.13;;;3.40;99.90;;;;;;5051953;28;20174;-59
2022/12/02 01:47:39;;;;;;;15.50;7.13;;;3.10;99.90;;;;;;5051889;28;20181;-59
2022/12/02 01:50:07;;;;;;;21.03;6.97;;;3.30;99.90;;;;;;5051632;28;20224;-59
2022/12/02 01:52:33;;;;;;;14.83;6.97;;;3.40;99.90;;;;;;5051600;28;20356;-59
2022/12/02 01:54:59;;;;;;;17.37;7.77;;;3.50;99.90;;;;;;5050403;28;20256;-59
2022/12/02 01:57:29;;;;;;;20.37;8.30;;;3.10;99.90;;;;;;5042655;28;20587;-59
2022/12/02 01:59:55;;;;;;;23.53;8.23;;;3.10;99.90;;;;;;5036665;28;20178;-59
2022/12/02 02:02:29;;;;;;;17.00;7.97;;;3.00;99.90;;;;;;5047449;28;20268;-59
2022/12/02 02:04:58;;;;;;;23.50;8.00;;;2.70;99.90;;;;;;5045865;28;20177;-59
2022/12/02 02:07:23;;;;;;;19.70;6.77;;;2.90;99.90;;;;;;5031392;28;20189;-60
2022/12/02 02:09:50;;;;;;;18.07;7.60;;;;;;;;;;5043289;28;20177;-59
2022/12/02 02:12:15;;;;;;;23.70;8.27;;;3.10;99.90;;;;;;5051390;28;20205;-59
2022/12/02 02:14:41;;;;;;;16.03;7.77;;;2.90;99.90;;;;;;5051485;28;20176;-59
2022/12/02 02:17:07;;;;;;;18.47;8.07;;;;;;;;;;5051362;28;20165;-59
2022/12/02 02:19:33;;;;;;;24.07;7.57;;;;;;;;;;5051459;28;20177;-59
2022/12/02 02:22:00;;;;;;;25.90;7.80;;;3.10;99.90;;;;;;5039461;28;20174;-59
2022/12/02 02:24:26;;;;;;;18.90;7.30;;;2.90;99.90;;;;;;5031380;28;20174;-58
2022/12/02 02:26:51;;;;;;;24.23;7.73;;;2.80;99.90;;;;;;5031530;28;20678;-59
2022/12/02 02:29:17;;;;;;;16.67;8.00;;;2.80;99.90;;;;;;5031339;28;20345;-59
2022/12/02 02:31:43;;;;;;;15.97;7.60;;;;;;;;;;5030792;28;20279;-58
2022/12/02 02:34:09;;;;;;;18.30;7.30;;;3.00;99.90;;;;;;5029952;28;20173;-58
2022/12/02 02:36:36;;;;;;;17.73;7.50;;;;;;;;;;5030960;28;20668;-59
2022/12/02 02:39:01;;;;;;;25.70;7.60;;;3.20;99.90;;;;;;5043335;28;20196;-58
2022/12/02 02:41:27;;;;;;;27.67;8.43;;;2.80;99.90;;;;;;5049958;28;20718;-58
2022/12/02 02:43:53;;;;;;;26.03;7.57;;;2.40;99.90;;;;;;5048328;28;20631;-59
2022/12/02 02:46:20;;;;;;;20.80;8.10;;;;;;;;;;5048910;28;20668;-59
2022/12/02 02:48:47;;;;;;;32.80;8.37;;;2.40;99.90;;;;;;5050262;28;20172;-59
2022/12/02 02:51:13;;;;;;;26.43;8.80;;;2.60;99.90;;;;;;5045119;28;20177;-59
2022/12/02 02:53:39;;;;;;;24.60;8.03;;;;;;;;;;5050500;28;20689;-59
2022/12/02 02:56:05;;;;;;;23.87;8.20;;;2.90;99.90;;;;;;5048085;28;20173;-58
2022/12/02 02:58:33;;;;;;;39.13;8.03;;;2.80;99.90;;;;;;5049593;28;20173;-57
2022/12/02 03:01:04;;;;;;;54.63;8.67;;;2.40;99.90;;;;;;5033469;28;20177;-57
2022/12/02 03:03:34;;;;;;;47.53;9.27;;;2.70;99.90;;;;;;5050121;28;20264;-58
2022/12/02 03:06:01;;;;;;;48.93;9.40;;;;;;;;;;5048143;28;20177;-58
2022/12/02 03:08:30;;;;;;;32.00;9.03;;;2.90;99.90;;;;;;5040247;28;20177;-58
2022/12/02 03:10:58;;;;;;;38.20;9.43;;;2.80;99.90;;;;;;5049746;28;20185;-58
2022/12/02 03:13:24;;;;;;;52.20;8.83;;;;;;;;;;5050350;28;20213;-58
2022/12/02 03:15:50;;;;;;;32.97;7.90;;;2.50;99.90;;;;;;5050486;28;20214;-58
2022/12/02 03:18:16;;;;;;;17.43;6.57;;;2.60;99.90;;;;;;5053652;28;20185;-58
2022/12/02 03:20:42;;;;;;;46.43;8.27;;;2.80;99.90;;;;;;5052872;28;20208;-58
2022/12/02 03:23:08;;;;;;;40.23;9.07;;;2.80;99.90;;;;;;5043307;28;20616;-57
2022/12/02 03:25:34;;;;;;;35.10;7.93;;;2.50;99.90;;;;;;5054630;28;20204;-57
2022/12/02 03:28:00;;;;;;;34.93;8.57;;;2.80;99.90;;;;;;5053069;28;20252;-57
2022/12/02 03:30:26;;;;;;;29.63;8.10;;;2.40;99.90;;;;;;5053742;28;20257;-57
2022/12/02 03:32:52;;;;;;;39.17;8.17;;;2.50;99.90;;;;;;5053550;28;20721;-57
2022/12/02 03:35:18;;;;;;;26.80;7.70;;;;;;;;;;5053457;28;20215;-58
2022/12/02 03:37:44;;;;;;;19.17;7.77;;;2.50;99.90;;;;;;5052876;28;20204;-57
2022/12/02 03:40:11;;;;;;;21.73;8.10;;;2.90;99.90;;;;;;5053425;28;20692;-57
2022/12/02 03:42:37;;;;;;;22.47;7.00;;;;;;;;;;5042622;28;20201;-57
2022/12/02 03:45:03;;;;;;;23.63;7.50;;;2.90;99.90;;;;;;5054164;28;20165;-58
2022/12/02 03:47:29;;;;;;;24.87;8.00;;;2.90;99.90;;;;;;5053787;28;20639;-58
2022/12/02 03:49:56;;;;;;;28.00;8.20;;;3.00;99.90;;;;;;5051833;28;20204;-58
2022/12/02 03:52:22;;;;;;;22.70;7.77;;;;;;;;;;5038783;28;20217;-58
2022/12/02 03:54:48;;;;;;;20.60;7.57;;;3.10;99.90;;;;;;5049191;28;20184;-58
2022/12/02 03:57:14;;;;;;;21.50;7.87;;;3.10;99.90;;;;;;5049867;28;20178;-58
2022/12/02 03:59:39;;;;;;;32.53;7.60;;;2.90;99.90;;;;;;5034192;28;20174;-58
2022/12/02 04:02:05;;;;;;;41.40;7.60;;;2.90;99.90;;;;;;5038715;28;20548;-58
2022/12/02 04:04:31;;;;;;;26.63;8.50;;;3.00;99.90;;;;;;5038552;28;20640;-58
2022/12/02 04:06:57;;;;;;;24.50;8.43;;;;;;;;;;5045034;28;20171;-58
2022/12/02 04:09:23;;;;;;;24.43;8.43;;;2.70;99.90;;;;;;5053915;28;20227;-59
2022/12/02 04:11:48;;;;;;;24.80;7.60;;;2.70;99.90;;;;;;5049376;28;20671;-58
2022/12/02 04:14:14;;;;;;;24.40;7.77;;;3.00;99.90;;;;;;5034684;28;20170;-59
2022/12/02 04:16:39;;;;;;;24.83;8.83;;;3.00;99.90;;;;;;5037287;28;20185;-59
2022/12/02 04:19:05;;;;;;;27.10;8.20;;;3.20;99.90;;;;;;5038574;28;20258;-59
2022/12/02 04:21:30;;;;;;;30.00;7.83;;;2.80;99.90;;;;;;5043130;28;20663;-58
2022/12/02 04:23:56;;;;;;;26.80;8.83;;;;;;;;;;5043090;28;20276;-58
2022/12/02 04:26:22;;;;;;;29.53;8.47;;;2.70;99.90;;;;;;5044162;28;20177;-57
2022/12/02 04:28:48;;;;;;;28.10;8.63;;;3.20;99.90;;;;;;5051908;28;20172;-58
2022/12/02 04:31:14;;;;;;;24.67;8.80;;;;;;;;;;5047359;28;20232;-58
2022/12/02 04:33:39;;;;;;;18.33;7.20;;;2.90;99.90;;;;;;5050941;28;20217;-58
2022/12/02 04:36:05;;;;;;;27.03;7.83;;;3.00;99.90;;;;;;5048323;28;20184;-58
2022/12/02 04:38:31;;;;;;;25.17;7.83;;;;;;;;;;5034427;28;20632;-58
2022/12/02 04:40:57;;;;;;;29.93;7.33;;;2.70;99.90;;;;;;5050341;28;20181;-58
2022/12/02 04:43:22;;;;;;;23.10;7.70;;;3.40;99.90;;;;;;5041861;28;20173;-58
2022/12/02 04:45:48;;;;;;;33.30;8.00;;;2.80;99.90;;;;;;5053051;28;20647;-58
2022/12/02 04:48:13;;;;;;;25.13;8.17;;;2.50;99.90;;;;;;5040760;28;20231;-58
2022/12/02 04:50:39;;;;;;;24.27;7.53;;;2.70;99.90;;;;;;5033099;28;20209;-58
2022/12/02 04:53:05;;;;;;;23.63;7.93;;;2.90;99.90;;;;;;5032974;28;20202;-58
2022/12/02 04:55:31;;;;;;;19.97;7.50;;;;;;;;;;5032988;28;20166;-57
2022/12/02 04:57:56;;;;;;;28.47;8.47;;;2.90;99.90;;;;;;5032882;28;20189;-57
2022/12/02 05:00:22;;;;;;;18.97;7.67;;;2.40;99.90;;;;;;5037551;28;20176;-57
2022/12/02 05:02:47;;;;;;;19.53;8.27;;;2.90;99.90;;;;;;5048014;28;20709;-57
2022/12/02 05:05:13;;;;;;;25.40;7.93;;;2.50;99.90;;;;;;5052999;28;20172;-57
2022/12/02 05:07:39;;;;;;;29.07;8.20;;;;;;;;;;5052177;28;20192;-57
2022/12/02 05:10:05;;;;;;;30.47;8.40;;;2.60;99.90;;;;;;5050875;28;20542;-57
2022/12/02 05:12:31;;;;;;;47.60;8.53;;;;;;;;;;5051979;28;20697;-57
2022/12/02 05:14:57;;;;;;;25.40;8.30;;;2.70;99.90;;;;;;5040729;28;20174;-57
2022/12/02 05:17:23;;;;;;;33.53;8.43;;;;;;;;;;5051867;28;20213;-57
2022/12/02 05:19:49;;;;;;;29.10;8.10;;;2.60;99.90;;;;;;5032585;28;20170;-57
2022/12/02 05:22:14;;;;;;;50.90;8.70;;;2.80;99.90;;;;;;5038710;28;20197;-59
2022/12/02 05:24:40;;;;;;;53.43;8.40;;;2.70;99.90;;;;;;5052362;28;20177;-58
2022/12/02 05:27:06;;;;;;;36.80;8.80;;;;;;;;;;5043037;28;20166;-58
2022/12/02 05:29:32;;;;;;;46.33;8.27;;;;;;;;;;5032434;28;20539;-57
2022/12/02 05:31:58;;;;;;;40.80;7.93;;;;;;;;;;5031891;28;20253;-57
2022/12/02 05:34:23;;;;;;;23.00;8.23;;;2.30;99.90;;;;;;5031602;28;20503;-57
2022/12/02 05:36:49;;;;;;;75.10;9.63;;;;;;;;;;5031698;28;20174;-57
2022/12/02 05:39:15;;;;;;;44.87;8.77;;;2.60;99.90;;;;;;5040564;28;20223;-57
2022/12/02 05:41:42;;;;;;;39.63;8.27;;;2.20;99.90;;;;;;5051715;28;20209;-57
2022/12/02 05:44:22;;;;;;;39.13;7.27;;;2.10;99.90;;;;;;5050707;28;20197;-57
2022/12/02 05:46:49;;;;;;;26.73;8.60;;;;;;;;;;5051184;28;20183;-57
2022/12/02 05:49:20;;;;;;;50.07;8.73;;;2.50;99.90;;;;;;5050647;28;20189;-57
2022/12/02 05:51:51;;;;;;;47.23;8.83;;;2.60;99.90;;;;;;5032774;28;20181;-57
2022/12/02 05:54:18;;;;;;;34.67;7.13;;;2.40;99.90;;;;;;5050993;28;20181;-57
2022/12/02 05:56:45;;;;;;;34.23;7.80;;;2.30;99.90;;;;;;5042549;28;20216;-57
2022/12/02 05:59:18;;;;;;;35.10;8.43;;;2.50;99.90;;;;;;5036521;28;20264;-58
2022/12/02 06:01:49;;;;;;;51.93;7.97;;;2.40;99.90;;;;;;5044101;28;20272;-57
2022/12/02 06:04:19;;;;;;;44.50;7.87;;;2.20;99.90;;;;;;5051571;28;20208;-58
2022/12/02 06:06:45;;;;;;;47.17;7.20;;;2.10;99.90;;;;;;5050349;28;20177;-58
2022/12/02 06:09:24;;;;;;;46.73;7.70;;;2.20;99.90;;;;;;5051174;28;20177;-58
2022/12/02 06:11:51;;;;;;;20.60;6.13;;;1.90;99.90;;;;;;5051116;28;20199;-58
2022/12/02 06:14:27;;;;;;;53.00;8.33;;;1.80;99.90;;;;;;5049796;28;20179;-58
2022/12/02 06:17:15;;;;;;;26.73;7.33;;;2.00;99.90;;;;;;5050771;28;20192;-58
2022/12/02 06:19:46;;;;;;;13.90;5.87;;;2.20;99.90;;;;;;5047809;28;20205;-58
2022/12/02 06:22:28;;;;;;;22.07;7.07;;;1.20;99.90;;;;;;5050708;28;20559;-58
2022/12/02 06:24:55;;;;;;;16.83;6.70;;;2.30;99.90;;;;;;5031945;28;20640;-58
2022/12/02 06:27:22;;;;;;;20.97;7.17;;;;;;;;;;5050715;28;20185;-58
2022/12/02 06:30:03;;;;;;;14.90;6.67;;;2.20;99.90;;;;;;5022121;28;20575;-58
2022/12/02 06:32:37;;;;;;;20.10;7.60;;;2.10;99.90;;;;;;5039182;28;20232;-58
2022/12/02 06:35:15;;;;;;;17.87;7.33;;;2.10;99.90;;;;;;5040651;28;20173;-59
2022/12/02 06:37:41;;;;;;;20.60;7.27;;;2.30;99.90;;;;;;5045631;28;20190;-58
2022/12/02 06:40:29;;;;;;;22.77;8.30;;;2.10;99.90;;;;;;5030717;28;20227;-58
2022/12/02 06:43:00;;;;;;;71.47;10.03;;;2.20;99.90;;;;;;5008128;28;20523;-59
2022/12/02 06:45:31;;;;;;;18.23;7.47;;;2.40;99.90;;;;;;5045531;28;20555;-58
2022/12/02 06:48:25;;;;;;;30.67;7.70;;;2.20;99.90;;;;;;5048935;28;20173;-59
2022/12/02 06:50:50;;;;;;;42.00;8.80;;;2.20;99.90;;;;;;5040299;28;20239;-59
2022/12/02 06:53:29;;;;;;;23.27;7.73;;;2.20;99.90;;;;;;5050271;28;20219;-58
2022/12/02 06:56:28;;;;;;;20.73;7.33;;;2.20;99.90;;;;;;5046677;28;20177;-58
2022/12/02 06:59:00;;;;;;;20.60;7.83;;;2.10;99.90;;;;;;5019659;28;20198;-58
2022/12/02 07:01:40;;;;;;;26.63;8.23;;;2.50;99.90;;;;;;5037980;28;20173;-57
2022/12/02 07:04:08;;;;;;;19.37;6.80;;;2.30;99.90;;;;;;5050783;28;20227;-58
2022/12/02 07:06:48;;;;;;;43.20;8.27;;;2.20;99.90;;;;;;5050697;28;20169;-59
2022/12/02 07:09:26;;;;;;;22.27;7.57;;;2.30;99.90;;;;;;5048980;28;20165;-58
2022/12/02 07:11:53;;;;;;;26.10;7.73;;;2.10;99.90;;;;;;5020006;28;20189;-59
2022/12/02 07:14:49;;;;;;;15.60;6.80;;;2.30;99.90;;;;;;5038945;28;20170;-58
2022/12/02 07:17:22;;;;;;;18.80;7.60;;;;;;;;;;5013039;28;20166;-58
2022/12/02 07:20:10;;;;;;;21.47;8.10;;;2.30;99.90;;;;;;5031568;28;20169;-58
2022/12/02 07:22:44;;;;;;;18.40;7.07;;;2.30;99.90;;;;;;5037195;28;20225;-58
2022/12/02 07:25:33;;;;;;;19.63;7.37;;;2.30;99.90;;;;;;5035472;28;20243;-58
2022/12/02 07:28:00;;;;;;;20.90;7.80;;;2.40;99.90;;;;;;5022405;28;20194;-58
2022/12/02 07:30:26;;;;;;;20.73;7.70;;;;;;;;;;5030605;28;20201;-58
2022/12/02 07:32:52;;;;;;;26.67;8.07;;;;;;;;;;5030254;28;20222;-58
2022/12/02 07:35:18;;;;;;;20.27;8.53;;;2.50;99.90;;;;;;5036430;28;20461;-59
2022/12/02 07:37:45;;;;;;;31.17;9.77;;;2.10;99.90;;;;;;5031941;28;20197;-59
2022/12/02 07:40:17;;;;;;;20.03;8.40;;;2.50;99.90;;;;;;5030929;28;20253;-57
2022/12/02 07:42:43;;;;;;;22.40;9.00;;;2.70;99.90;;;;;;5048734;28;20221;-58
2022/12/02 07:45:14;;;;;;;20.40;8.63;;;2.40;99.90;;;;;;5050236;28;20174;-60
2022/12/02 07:47:40;;;;;;;22.73;8.13;;;;;;;;;;5050156;28;20205;-59
2022/12/02 07:50:07;;;;;;;20.40;8.40;;;2.50;99.90;;;;;;5050294;28;20268;-58
2022/12/02 07:52:32;;;;;;;18.20;8.60;;;2.50;99.90;;;;;;5050162;28;20181;-59
2022/12/02 07:55:00;;;;;;;16.73;8.10;;;2.70;99.90;;;;;;5050261;28;20235;-59
2022/12/02 07:57:26;;;;;;;22.27;8.10;;;2.40;99.90;;;;;;5048227;28;20177;-59
2022/12/02 07:59:51;;;;;;;21.20;7.97;;;2.60;99.90;;;;;;5034986;28;20255;-57
2022/12/02 08:02:17;;;;;;;17.77;8.23;;;2.50;99.90;;;;;;5030187;28;20214;-59
2022/12/02 08:04:43;;;;;;;73.23;10.43;;;;;;;;;;5032415;28;20173;-59
2022/12/02 08:07:09;;;;;;;206.10;12.90;;;2.40;99.90;;;;;;5033802;28;20170;-59
2022/12/02 08:09:34;;;;;;;19.37;8.33;;;2.40;99.90;;;;;;5033981;28;20186;-59
2022/12/02 08:12:00;;;;;;;19.77;8.20;;;2.70;99.90;;;;;;5033710;28;20193;-59
2022/12/02 08:14:26;;;;;;;21.13;8.00;;;2.70;99.90;;;;;;5033617;28;20185;-58
2022/12/02 08:16:52;;;;;;;25.00;8.47;;;;;;;;;;5033557;28;20262;-59
2022/12/02 08:19:17;;;;;;;20.00;7.50;;;2.60;99.90;;;;;;5033969;28;20197;-58
2022/12/02 08:21:43;;;;;;;21.00;8.13;;;2.70;99.90;;;;;;5033315;28;20178;-58
2022/12/02 08:24:09;;;;;;;19.47;8.47;;;2.80;99.90;;;;;;5033449;28;20177;-58
2022/12/02 08:26:35;;;;;;;24.67;8.43;;;;;;;;;;5033456;28;20272;-58
2022/12/02 08:29:00;;;;;;;21.73;8.50;;;3.00;99.90;;;;;;5033357;28;20198;-58
2022/12/02 08:31:27;;;;;;;23.67;8.73;;;5.00;99.90;;;;;;5029768;28;20253;-58
2022/12/02 08:33:53;;;;;;;25.07;8.70;;;2.60;99.90;;;;;;5030967;28;20202;-58
2022/12/02 08:36:19;;;;;;;20.13;8.00;;;2.70;99.90;;;;;;5030767;28;20251;-58
2022/12/02 08:38:46;;;;;;;21.00;8.10;;;2.40;99.90;;;;;;5053165;28;20185;-58
2022/12/02 08:41:12;;;;;;;20.23;8.20;;;;;;;;;;5053113;28;20173;-58
2022/12/02 08:43:38;;;;;;;21.63;8.77;;;2.70;99.90;;;;;;5052301;28;20216;-58
2022/12/02 08:46:05;;;;;;;24.10;8.77;;;2.80;99.90;;;;;;5052201;28;20184;-59
2022/12/02 08:48:31;;;;;;;24.77;8.33;;;2.90;99.90;;;;;;5052385;28;20208;-61
2022/12/02 08:50:56;;;;;;;26.10;9.47;;;2.80;99.90;;;;;;5052929;28;20659;-61
2022/12/02 08:53:22;;;;;;;20.43;8.97;;;3.00;99.90;;;;;;5052961;28;20170;-61
2022/12/02 08:55:48;;;;;;;25.60;8.70;;;3.00;99.90;;;;;;5052729;28;20177;-61
2022/12/02 08:58:14;;;;;;;21.87;8.80;;;3.20;99.90;;;;;;5052363;28;20212;-61
2022/12/02 09:00:40;;;;;;;21.53;8.90;;;3.30;99.90;;;;;;5045105;28;20190;-60
2022/12/02 09:03:07;;;;;;;22.73;9.00;;;3.00;99.90;;;;;;5032826;28;20206;-61
2022/12/02 09:05:34;;;;;;;28.30;10.13;;;3.80;99.90;;;;;;5032788;28;20655;-60
2022/12/02 09:08:00;;;;;;;25.73;8.97;;;3.20;99.90;;;;;;5034017;28;20256;-60
2022/12/02 09:10:25;;;;;;;28.87;9.37;;;3.00;99.90;;;;;;5052548;28;20595;-60
2022/12/02 09:12:52;;;;;;;26.20;10.47;;;2.90;99.90;;;;;;5051421;28;20186;-61
2022/12/02 09:15:19;;;;;;;27.87;9.07;;;2.90;99.90;;;;;;5052288;28;20208;-59
2022/12/02 09:17:45;;;;;;;23.27;9.37;;;3.20;99.90;;;;;;5034549;28;20180;-60
2022/12/02 09:20:11;;;;;;;20.73;8.80;;;3.40;99.90;;;;;;5050624;28;20260;-61
2022/12/02 09:22:37;;;;;;;28.70;9.83;;;3.30;99.90;;;;;;5047588;28;20217;-57
2022/12/02 09:25:03;;;;;;;26.23;9.87;;;3.40;99.90;;;;;;5039692;28;20173;-57
2022/12/02 09:27:29;;;;;;;22.97;9.47;;;;;;;;;;5031189;28;20183;-58
2022/12/02 09:29:55;;;;;;;25.03;9.33;;;3.50;99.90;;;;;;5048992;28;20670;-57
2022/12/02 09:32:20;;;;;;;22.27;8.37;;;3.40;99.90;;;;;;5047032;28;20222;-58
2022/12/02 09:34:46;;;;;;;21.10;9.43;;;3.70;99.90;;;;;;5032209;28;20181;-58
2022/12/02 09:37:12;;;;;;;23.50;9.30;;;3.40;99.90;;;;;;5051722;28;20666;-57
2022/12/02 09:39:38;;;;;;;23.70;9.53;;;3.60;99.90;;;;;;5050721;28;20251;-57
2022/12/02 09:42:04;;;;;;;24.17;9.13;;;3.50;99.90;;;;;;5051135;28;20240;-57
2022/12/02 09:44:30;;;;;;;21.17;9.30;;;3.60;99.90;;;;;;5042324;28;20670;-57
2022/12/02 09:46:57;;;;;;;28.33;10.20;;;3.40;99.90;;;;;;5045400;28;20169;-57
2022/12/02 09:49:22;;;;;;;22.83;9.30;;;3.50;99.90;;;;;;5051124;28;20181;-57
2022/12/02 09:51:48;;;;;;;30.13;9.90;;;;;;;;;;5031854;28;20178;-57
2022/12/02 09:54:16;;;;;;;22.23;9.77;;;4.00;99.90;;;;;;5043922;28;20184;-59
2022/12/02 09:56:41;;;;;;;28.83;10.27;;;3.90;99.90;;;;;;5035812;28;20192;-58
2022/12/02 09:59:15;;;;;;;25.90;9.83;;;3.90;99.90;;;;;;5051745;28;20184;-58
2022/12/02 10:01:44;;;;;;;25.40;10.57;;;3.60;99.90;;;;;;5050519;28;20259;-58
2022/12/02 10:04:13;;;;;;;25.63;8.70;;;3.80;99.90;;;;;;5031824;28;20170;-58
2022/12/02 10:06:40;;;;;;;15.73;7.60;;;;;;;;;;5036452;28;20193;-58
2022/12/02 10:09:11;;;;;;;19.97;9.27;;;4.00;99.90;;;;;;5038725;28;20211;-58
2022/12/02 10:11:37;;;;;;;18.17;8.60;;;4.00;99.90;;;;;;5043235;28;20177;-58
2022/12/02 10:14:05;;;;;;;20.80;8.70;;;5.00;99.90;;;;;;5051079;28;20643;-58
2022/12/02 10:16:33;;;;;;;24.47;8.83;;;3.80;99.90;;;;;;5051523;28;20177;-60
2022/12/02 10:19:02;;;;;;;20.70;8.07;;;4.00;99.90;;;;;;5035453;28;20177;-60
2022/12/02 10:21:28;;;;;;;31.53;15.33;;;4.00;99.90;;;;;;5038079;28;20526;-60
2022/12/02 10:23:55;;;;;;;19.77;9.33;;;4.30;99.90;;;;;;5037018;28;20224;-60
2022/12/02 10:26:21;;;;;;;17.13;8.07;;;4.30;99.90;;;;;;5048602;28;20177;-60
2022/12/02 10:29:04;;;;;;;16.97;7.73;;;4.10;99.90;;;;;;5051121;28;20539;-60
2022/12/02 10:31:30;;;;;;;17.37;8.50;;;4.20;99.90;;;;;;5051048;28;20286;-60
2022/12/02 10:34:02;;;;;;;15.70;7.37;;;4.40;99.90;;;;;;5047855;28;20574;-60
2022/12/02 10:36:39;;;;;;;16.77;7.93;;;4.20;99.90;;;;;;5031289;28;20174;-60
2022/12/02 10:39:20;;;;;;;16.97;7.93;;;4.40;99.90;;;;;;5031208;28;20227;-60
2022/12/02 10:42:06;;;;;;;19.27;8.00;;;4.40;99.90;;;;;;5030951;28;20189;-60
2022/12/02 10:44:43;;;;;;;15.83;7.67;;;4.50;99.90;;;;;;5031297;28;20201;-58
2022/12/02 10:47:15;;;;;;;22.03;9.10;;;4.30;99.90;;;;;;5031185;28;20185;-58
2022/12/02 10:49:58;;;;;;;18.03;8.50;;;4.20;99.90;;;;;;5030951;28;20660;-58
2022/12/02 10:52:31;;;;;;;21.47;9.23;;;4.30;99.90;;;;;;5013281;28;20209;-58
2022/12/02 10:54:58;;;;;;;18.60;8.83;;;4.30;99.90;;;;;;5031219;28;20239;-58
2022/12/02 10:57:27;;;;;;;20.47;8.53;;;4.50;99.90;;;;;;5031107;28;20158;-59
2022/12/02 10:59:55;;;;;;;16.90;8.50;;;4.90;99.90;;;;;;5030893;28;20597;-58
2022/12/02 11:02:34;;;;;;;17.20;8.13;;;4.70;99.90;;;;;;5030736;28;20217;-58
2022/12/02 11:05:16;;;;;;;16.87;8.33;;;4.70;99.90;;;;;;5030856;28;20339;-58
2022/12/02 11:08:00;;;;;;;15.53;7.70;;;4.80;99.90;;;;;;5030767;28;20180;-56
2022/12/02 11:10:38;;;;;;;16.53;8.30;;;4.90;99.90;;;;;;5030878;28;20185;-56
2022/12/02 11:13:13;;;;;;;17.97;8.57;;;4.70;99.90;;;;;;5030844;28;20181;-58
2022/12/02 11:15:50;;;;;;;15.97;7.90;;;4.70;99.90;;;;;;5030694;28;20180;-59
2022/12/02 11:18:22;;;;;;;17.47;7.97;;;4.50;99.90;;;;;;5030840;28;20227;-59
2022/12/02 11:20:53;;;;;;;17.53;7.83;;;5.20;99.90;;;;;;5030817;28;20166;-59
2022/12/02 11:23:23;;;;;;;16.40;7.70;;;4.80;99.90;;;;;;5028870;28;20245;-59
2022/12/02 11:25:52;;;;;;;15.97;7.33;;;5.00;99.90;;;;;;5029222;28;20181;-59
2022/12/02 11:28:27;;;;;;;17.33;7.97;;;4.70;99.90;;;;;;5029563;28;20181;-59
2022/12/02 11:31:10;;;;;;;17.87;8.80;;;5.20;99.90;;;;;;5027569;28;20196;-57
2022/12/02 11:33:42;;;;;;;23.33;8.80;;;4.80;99.90;;;;;;5030752;28;20190;-57
2022/12/02 11:36:08;;;;;;;17.93;9.13;;;4.80;99.90;;;;;;5030566;28;20178;-57
2022/12/02 11:38:55;;;;;;;17.70;8.77;;;5.00;99.90;;;;;;5032667;28;20173;-57
2022/12/02 11:41:51;;;;;;;17.37;7.97;;;5.40;99.90;;;;;;5034300;28;20532;-57
2022/12/02 11:44:28;;;;;;;20.47;9.67;;;5.40;99.90;;;;;;5034320;28;20181;-57
2022/12/02 11:47:04;;;;;;;20.47;8.33;;;4.80;99.90;;;;;;5016489;28;20178;-57
2022/12/02 11:49:39;;;;;;;16.60;8.57;;;4.90;99.90;;;;;;5034239;28;20180;-57
2022/12/02 11:52:07;;;;;;;19.33;8.67;;;5.10;99.90;;;;;;5034145;28;20199;-57
2022/12/02 11:54:38;;;;;;;17.27;8.77;;;5.10;99.90;;;;;;5034199;28;20166;-58
2022/12/02 11:57:05;;;;;;;19.63;8.20;;;5.10;99.90;;;;;;5034058;28;20662;-57
2022/12/02 11:59:34;;;;;;;23.20;8.33;;;5.20;99.90;;;;;;5053458;28;20181;-57
2022/12/02 12:02:29;;;;;;;18.23;8.33;;;5.30;99.90;;;;;;5053878;28;20197;-58
2022/12/02 12:05:06;;;;;;;18.97;8.43;;;5.50;99.90;;;;;;5032527;28;20197;-57
2022/12/02 12:07:44;;;;;;;17.60;8.97;;;5.70;99.90;;;;;;5053718;28;20180;-57
2022/12/02 12:10:38;;;;;;;16.27;8.47;;;5.40;99.90;;;;;;5054072;28;20188;-57
2022/12/02 12:13:12;;;;;;;25.50;9.13;;;5.50;99.90;;;;;;5053688;28;20177;-57
2022/12/02 12:15:53;;;;;;;19.47;9.30;;;5.80;99.90;;;;;;5053632;28;20178;-57
2022/12/02 12:18:45;;;;;;;21.20;9.13;;;5.50;99.90;;;;;;5049125;28;20177;-57
2022/12/02 12:21:34;;;;;;;18.87;9.77;;;5.60;99.90;;;;;;5053723;28;20189;-57
2022/12/02 12:24:18;;;;;;;15.27;8.77;;;5.60;99.90;;;;;;5036873;28;20235;-58
2022/12/02 12:27:03;;;;;;;18.37;9.47;;;5.80;99.90;;;;;;5053717;28;20174;-58
2022/12/02 12:29:30;;;;;;;17.00;9.13;;;5.50;99.90;;;;;;5053316;28;20283;-57
2022/12/02 12:31:57;;;;;;;15.87;8.90;;;;;;;;;;5053303;28;20240;-57
2022/12/02 12:34:22;;;;;;;17.47;9.90;;;5.60;99.90;;;;;;5053235;28;20176;-58
2022/12/02 12:36:48;;;;;;;18.13;9.33;;;;;;;;;;5052962;28;20173;-58
2022/12/02 12:39:15;;;;;;;24.33;9.97;;;5.80;99.90;;;;;;5053009;28;20172;-58
2022/12/02 12:41:41;;;;;;;21.50;10.30;;;5.70;99.90;;;;;;5053237;28;20235;-57
2022/12/02 12:44:06;;;;;;;17.33;10.00;;;5.60;99.90;;;;;;5053159;28;20213;-57
2022/12/02 12:46:32;;;;;;;18.63;9.47;;;5.60;99.90;;;;;;5053165;28;20573;-58
2022/12/02 12:48:58;;;;;;;20.33;9.53;;;5.80;99.90;;;;;;5052704;28;20172;-57
2022/12/02 12:51:24;;;;;;;18.33;9.43;;;5.70;99.90;;;;;;5052506;28;20181;-58
2022/12/02 12:53:50;;;;;;;17.47;10.10;;;5.60;99.90;;;;;;5052982;28;20173;-57
2022/12/02 12:56:17;;;;;;;19.10;9.97;;;5.60;99.90;;;;;;5052986;28;20250;-58
2022/12/02 12:58:42;;;;;;;20.27;11.00;;;5.80;99.90;;;;;;5052872;28;20511;-57
2022/12/02 13:01:08;;;;;;;21.47;10.40;;;6.20;99.90;;;;;;5052801;28;20231;-57
2022/12/02 13:03:34;;;;;;;22.03;10.30;;;;;;;;;;5052590;28;20216;-57
2022/12/02 13:06:00;;;;;;;21.33;10.80;;;6.10;99.90;;;;;;5052653;28;20219;-57
2022/12/02 13:08:25;;;;;;;24.90;10.73;;;6.00;99.90;;;;;;5052677;28;20534;-58
2022/12/02 13:10:51;;;;;;;24.77;10.90;;;5.80;99.90;;;;;;5052543;28;20170;-57
2022/12/02 13:13:17;;;;;;;23.77;11.37;;;5.90;99.90;;;;;;5044915;28;20212;-58